createdAt,value
2022-08-17T00:00:34.286Z,95683.97
2022-08-17T00:03:10.063Z,95683.97
2022-08-17T00:05:43.695Z,95686.13
2022-08-17T00:08:12.321Z,95649.25
2022-08-17T00:10:40.918Z,95675.28
2022-08-17T00:13:10.410Z,95669.66
2022-08-17T00:15:39.093Z,95626.63
2022-08-17T00:19:01.315Z,95664.31
2022-08-17T00:20:58.383Z,95676.91
2022-08-17T00:23:26.968Z,95678.53
2022-08-17T00:25:55.790Z,95679.88
2022-08-17T00:28:24.571Z,95683.28
2022-08-17T00:30:54.412Z,95688.75
2022-08-17T00:33:26.830Z,95681.69
2022-08-17T00:35:56.183Z,95679.25
2022-08-17T00:38:25.244Z,95681.94
2022-08-17T00:40:55.658Z,95646.97
2022-08-17T00:43:31.678Z,95678.59
2022-08-17T00:46:00.900Z,95677.19
2022-08-17T00:48:31.089Z,95682.75
2022-08-17T00:51:06.331Z,95681.47
2022-08-17T00:53:36.015Z,95684.25
2022-08-17T00:56:07.128Z,95677.28
2022-08-17T00:58:36.469Z,95666.47
2022-08-17T01:01:06.093Z,95675.53
2022-08-17T01:03:36.468Z,95668.56
2022-08-17T01:06:06.097Z,95638.75
2022-08-17T01:08:34.654Z,95677.59
2022-08-17T01:11:05.369Z,95675.81
2022-08-17T01:13:40.995Z,95672.94
2022-08-17T01:16:18.952Z,95671.66
2022-08-17T01:18:51.262Z,95674.44
2022-08-17T01:21:25.270Z,95676.38
2022-08-17T01:23:54.804Z,95671.28
2022-08-17T01:26:23.140Z,95672.91
2022-08-17T01:28:54.621Z,95684.06
2022-08-17T01:31:25.962Z,95676.09
2022-08-17T01:33:54.613Z,95676.91
2022-08-17T01:36:22.847Z,95679.38
2022-08-17T01:38:51.141Z,95646.41
2022-08-17T01:41:23.481Z,95678.47
2022-08-17T01:43:54.705Z,95683.97
2022-08-17T01:46:24.965Z,95682.84
2022-08-17T01:48:53.153Z,95676.31
2022-08-17T01:51:22.175Z,95677.78
2022-08-17T01:53:53.673Z,95676.00
2022-08-17T01:56:27.026Z,95690.19
2022-08-17T01:58:55.462Z,95654.44
2022-08-17T02:01:26.611Z,95688.97
2022-08-17T02:04:00.626Z,95690.75
2022-08-17T02:06:31.260Z,95688.78
2022-08-17T02:09:03.052Z,95679.09
2022-08-17T02:11:34.751Z,95689.13
2022-08-17T02:14:04.040Z,95687.03
2022-08-17T02:16:36.838Z,95683.81
2022-08-17T02:19:13.551Z,95680.84
2022-08-17T02:21:42.216Z,95680.03
2022-08-17T02:24:12.982Z,95680.03
2022-08-17T02:26:42.806Z,95676.28
2022-08-17T02:29:11.022Z,95676.56
2022-08-17T02:31:39.211Z,95670.28
2022-08-17T02:34:07.445Z,95671.56
2022-08-17T02:36:36.046Z,95683.53
2022-08-17T02:39:05.648Z,95641.91
2022-08-17T02:41:34.008Z,95687.22
2022-08-17T02:44:03.499Z,95676.03
2022-08-17T02:46:32.368Z,95680.91
2022-08-17T02:49:00.719Z,95678.16
2022-08-17T02:51:29.826Z,95674.16
2022-08-17T02:54:02.183Z,95668.88
2022-08-17T02:56:47.147Z,95669.22
2022-08-17T02:59:16.882Z,95670.81
2022-08-17T03:01:45.103Z,95676.81
2022-08-17T03:04:13.338Z,95676.00
2022-08-17T03:06:41.441Z,95671.66
2022-08-17T03:09:09.865Z,95634.81
2022-08-17T03:11:38.003Z,95673.06
2022-08-17T03:14:08.910Z,95637.25
2022-08-17T03:16:38.402Z,95671.81
2022-08-17T03:19:07.567Z,95660.78
2022-08-17T03:21:35.755Z,95661.63
2022-08-17T03:24:09.028Z,95663.84
2022-08-17T03:26:37.748Z,95668.31
2022-08-17T03:29:05.876Z,95669.78
2022-08-17T03:31:34.041Z,95674.16
2022-08-17T03:34:06.632Z,95662.19
2022-08-17T03:36:36.110Z,95657.50
2022-08-17T03:39:04.714Z,95655.09
2022-08-17T03:41:32.932Z,95660.97
2022-08-17T03:44:01.159Z,95661.63
2022-08-17T03:46:46.916Z,95658.66
2022-08-17T03:49:34.781Z,95659.47
2022-08-17T03:52:20.512Z,95660.09
2022-08-17T03:55:06.379Z,95656.53
2022-08-17T03:57:34.539Z,95648.94
2022-08-17T04:00:02.759Z,95659.78
2022-08-17T04:02:33.120Z,95660.56
2022-08-17T04:05:02.876Z,95653.13
2022-08-17T04:07:32.351Z,95610.56
2022-08-17T04:10:05.016Z,95650.59
2022-08-17T04:12:44.696Z,95634.19
2022-08-17T04:15:13.486Z,95655.50
2022-08-17T04:17:41.911Z,95641.28
2022-08-17T04:20:12.567Z,95658.13
2022-08-17T04:22:40.724Z,95663.75
2022-08-17T04:25:16.590Z,95667.00
2022-08-17T04:27:44.861Z,95658.94
2022-08-17T04:30:14.039Z,95665.41
2022-08-17T04:33:04.769Z,95669.16
2022-08-17T04:35:37.980Z,95670.94
2022-08-17T04:38:06.637Z,95671.88
2022-08-17T04:40:52.386Z,95666.06
2022-08-17T04:43:22.833Z,95663.63
2022-08-17T04:45:56.363Z,95664.59
2022-08-17T04:48:33.400Z,95671.34
2022-08-17T04:51:09.899Z,95629.94
2022-08-17T04:53:39.197Z,95666.28
2022-08-17T04:56:07.873Z,95667.88
2022-08-17T04:58:40.208Z,95673.03
2022-08-17T05:01:08.848Z,95654.91
2022-08-17T05:03:37.088Z,95667.38
2022-08-17T05:06:07.112Z,95672.56
2022-08-17T05:08:35.600Z,95688.69
2022-08-17T05:11:03.878Z,95681.19
2022-08-17T05:13:32.212Z,95648.88
2022-08-17T05:16:01.774Z,95683.66
2022-08-17T05:18:30.853Z,95688.78
2022-08-17T05:20:59.058Z,95693.44
2022-08-17T05:23:38.485Z,95688.22
2022-08-17T05:26:11.723Z,95682.75
2022-08-17T05:28:54.321Z,95689.66
2022-08-17T05:31:22.517Z,95683.31
2022-08-17T05:33:50.696Z,95690.75
2022-08-17T05:36:42.154Z,95652.31
2022-08-17T05:39:08.508Z,95676.72
2022-08-17T05:41:46.350Z,95685.34
2022-08-17T05:44:14.596Z,95665.56
2022-08-17T05:46:45.300Z,95673.25
2022-08-17T05:49:15.880Z,95673.13
2022-08-17T05:52:10.055Z,95643.09
2022-08-17T05:54:50.258Z,95675.34
2022-08-17T05:57:30.887Z,95651.28
2022-08-17T06:00:10.017Z,95671.16
2022-08-17T06:02:47.873Z,95673.28
2022-08-17T06:05:36.389Z,95670.31
2022-08-17T06:08:12.734Z,95665.94
2022-08-17T06:10:46.702Z,95641.09
2022-08-17T06:13:23.693Z,95673.19
2022-08-17T06:15:58.378Z,95675.50
2022-08-17T06:18:31.087Z,95673.28
2022-08-17T06:21:02.311Z,95662.56
2022-08-17T06:23:36.735Z,95632.63
2022-08-17T06:26:13.514Z,95666.78
2022-08-17T06:28:46.272Z,95666.31
2022-08-17T06:31:27.506Z,95665.81
2022-08-17T06:33:55.950Z,95662.09
2022-08-17T06:36:43.139Z,95670.00
2022-08-17T06:39:30.851Z,95669.06
2022-08-17T06:42:09.541Z,95674.31
2022-08-17T06:45:03.470Z,95666.34
2022-08-17T06:47:36.753Z,95654.91
2022-08-17T06:50:11.803Z,95662.78
2022-08-17T06:52:47.581Z,95663.59
2022-08-17T06:55:19.485Z,95666.84
2022-08-17T06:57:51.688Z,95669.22
2022-08-17T07:00:26.116Z,95665.59
2022-08-17T07:02:58.225Z,95657.72
2022-08-17T07:05:28.296Z,95649.84
2022-08-17T07:08:04.868Z,95617.72
2022-08-17T07:10:38.516Z,95650.59
2022-08-17T07:13:29.418Z,95656.53
2022-08-17T07:16:04.771Z,95647.25
2022-08-17T07:18:36.654Z,95659.91
2022-08-17T07:21:15.519Z,95654.34
2022-08-17T07:23:57.872Z,95652.13
2022-08-17T07:26:26.094Z,95653.22
2022-08-17T07:28:56.226Z,95651.69
2022-08-17T07:31:26.392Z,95650.88
2022-08-17T07:34:08.486Z,95655.06
2022-08-17T07:36:36.648Z,95626.22
2022-08-17T07:39:06.014Z,95652.97
2022-08-17T07:41:53.168Z,95628.47
2022-08-17T07:44:28.649Z,95631.00
2022-08-17T07:47:15.230Z,95647.44
2022-08-17T07:49:46.160Z,95648.53
2022-08-17T07:52:50.553Z,95652.34
2022-08-17T07:55:27.968Z,95650.44
2022-08-17T07:57:57.446Z,95650.72
2022-08-17T08:00:32.630Z,95649.69
2022-08-17T08:03:06.394Z,95612.44
2022-08-17T08:05:49.953Z,95651.50
2022-08-17T08:08:28.052Z,95629.44
2022-08-17T08:11:02.762Z,95643.50
2022-08-17T08:13:32.818Z,95649.19
2022-08-17T08:16:25.922Z,95662.09
2022-08-17T08:18:57.951Z,95657.88
2022-08-17T08:21:37.834Z,95663.91
2022-08-17T08:24:19.607Z,95653.31
2022-08-17T08:26:54.016Z,95666.47
2022-08-17T08:29:28.441Z,95661.38
2022-08-17T08:32:04.973Z,95670.28
2022-08-17T08:34:58.564Z,95665.91
2022-08-17T08:37:40.501Z,95661.72
2022-08-17T08:40:21.562Z,95665.59
2022-08-17T08:42:56.588Z,95670.38
2022-08-17T08:45:28.376Z,95659.47
2022-08-17T08:48:22.883Z,95661.66
2022-08-17T08:51:01.714Z,95669.94
2022-08-17T08:53:37.601Z,95663.50
2022-08-17T08:56:08.864Z,95671.72
2022-08-17T08:58:50.726Z,95641.81
2022-08-17T09:01:25.123Z,95656.69
2022-08-17T09:04:20.010Z,95667.22
2022-08-17T09:06:59.844Z,95677.47
2022-08-17T09:09:37.267Z,95660.19
2022-08-17T09:12:10.732Z,95655.47
2022-08-17T09:14:46.610Z,95630.34
2022-08-17T09:17:18.451Z,95659.47
2022-08-17T09:19:52.042Z,95659.00
2022-08-17T09:22:31.325Z,95667.88
2022-08-17T09:25:08.096Z,95663.38
2022-08-17T09:27:46.328Z,95658.44
2022-08-17T09:30:15.320Z,95654.06
2022-08-17T09:32:47.105Z,95647.47
2022-08-17T09:35:19.921Z,95663.97
2022-08-17T09:37:54.954Z,95666.00
2022-08-17T09:40:26.730Z,95666.00
2022-08-17T09:42:57.826Z,95653.38
2022-08-17T09:45:32.212Z,95641.69
2022-08-17T09:48:05.029Z,95644.09
2022-08-17T09:51:03.183Z,95650.44
2022-08-17T09:53:31.665Z,95646.75
2022-08-17T09:56:08.360Z,95644.69
2022-08-17T09:58:50.467Z,95598.34
2022-08-17T10:01:31.899Z,95622.94
2022-08-17T10:04:07.693Z,95640.06
2022-08-17T10:06:47.704Z,95647.50
2022-08-17T10:09:18.890Z,95641.63
2022-08-17T10:12:09.357Z,95646.72
2022-08-17T10:14:44.006Z,95646.34
2022-08-17T10:17:20.995Z,95644.06
2022-08-17T10:19:58.655Z,95645.41
2022-08-17T10:22:53.078Z,95639.91
2022-08-17T10:25:54.531Z,95627.91
2022-08-17T10:28:29.869Z,95630.06
2022-08-17T10:31:30.758Z,95605.91
2022-08-17T10:34:08.207Z,95624.47
2022-08-17T10:36:46.133Z,95623.34
2022-08-17T10:39:24.866Z,95625.00
2022-08-17T10:41:57.054Z,95627.13
2022-08-17T10:44:38.828Z,95626.34
2022-08-17T10:47:11.689Z,95631.66
2022-08-17T10:49:47.568Z,95630.06
2022-08-17T10:52:52.367Z,95619.19
2022-08-17T10:55:22.212Z,95619.66
2022-08-17T10:57:51.426Z,95608.81
2022-08-17T11:01:05.788Z,95614.88
2022-08-17T11:03:34.045Z,95620.06
2022-08-17T11:06:12.744Z,95621.72
2022-08-17T11:09:06.506Z,95617.16
2022-08-17T11:11:47.947Z,95607.56
2022-08-17T11:14:34.906Z,95602.31
2022-08-17T11:17:42.223Z,95603.66
2022-08-17T11:20:31.084Z,95613.09
2022-08-17T11:23:21.607Z,95609.88
2022-08-17T11:25:53.644Z,95597.06
2022-08-17T11:28:26.425Z,95608.34
2022-08-17T11:30:57.193Z,95604.00
2022-08-17T11:33:53.683Z,95608.59
2022-08-17T11:36:31.737Z,95591.19
2022-08-17T11:39:04.584Z,95582.44
2022-08-17T11:41:39.799Z,95602.56
2022-08-17T11:44:22.038Z,95592.19
2022-08-17T11:47:23.415Z,95597.41
2022-08-17T11:50:25.799Z,95589.31
2022-08-17T11:52:56.104Z,95592.44
2022-08-17T11:56:01.822Z,95595.16
2022-08-17T11:58:38.759Z,95597.34
2022-08-17T12:01:09.424Z,95593.66
2022-08-17T12:03:55.583Z,95586.41
2022-08-17T12:06:43.172Z,95595.38
2022-08-17T12:09:15.824Z,95593.25
2022-08-17T12:11:58.665Z,95580.94
2022-08-17T12:15:08.085Z,95592.31
2022-08-17T12:17:40.502Z,95589.91
2022-08-17T12:20:24.300Z,95595.56
2022-08-17T12:23:00.939Z,95595.47
2022-08-17T12:25:35.242Z,95587.59
2022-08-17T12:28:06.540Z,95583.66
2022-08-17T12:30:36.617Z,95585.47
2022-08-17T12:33:13.730Z,95584.19
2022-08-17T12:35:59.731Z,95586.09
2022-08-17T12:38:32.369Z,95588.88
2022-08-17T12:41:22.487Z,95578.25
2022-08-17T12:44:01.642Z,95583.00
2022-08-17T12:46:33.767Z,95579.59
2022-08-17T12:49:24.614Z,95553.47
2022-08-17T12:51:56.539Z,95580.22
2022-08-17T12:54:31.424Z,95577.13
2022-08-17T12:57:03.240Z,95578.53
2022-08-17T12:59:33.163Z,95566.66
2022-08-17T13:02:02.254Z,95578.97
2022-08-17T13:04:32.816Z,95576.66
2022-08-17T13:07:00.999Z,95584.75
2022-08-17T13:09:35.888Z,95575.31
2022-08-17T13:12:09.327Z,95568.34
2022-08-17T13:14:37.622Z,95556.75
2022-08-17T13:17:11.060Z,95569.00
2022-08-17T13:19:49.833Z,95543.47
2022-08-17T13:22:21.384Z,95573.91
2022-08-17T13:24:54.153Z,95562.31
2022-08-17T13:27:24.375Z,95554.41
2022-08-17T13:29:55.892Z,95566.00
2022-08-17T13:32:34.366Z,95582.63
2022-08-17T13:35:43.069Z,95569.84
2022-08-17T13:38:15.714Z,95575.47
2022-08-17T13:40:51.947Z,95568.47
2022-08-17T13:43:44.619Z,95560.22
2022-08-17T13:46:19.905Z,95523.34
2022-08-17T13:48:58.345Z,95527.94
2022-08-17T13:51:31.223Z,95554.75
2022-08-17T13:54:05.824Z,95562.44
2022-08-17T13:56:56.267Z,95556.97
2022-08-17T13:59:52.503Z,95551.84
2022-08-17T14:02:22.237Z,95563.84
2022-08-17T14:04:50.490Z,95555.72
2022-08-17T14:07:29.426Z,95569.44
2022-08-17T14:10:00.702Z,95561.34
2022-08-17T14:12:30.295Z,95561.13
2022-08-17T14:14:59.503Z,95567.19
2022-08-17T14:17:36.346Z,95562.38
2022-08-17T14:20:09.510Z,95553.53
2022-08-17T14:22:40.816Z,95559.75
2022-08-17T14:25:10.880Z,95562.59
2022-08-17T14:27:47.132Z,95526.47
2022-08-17T14:30:22.218Z,95551.56
2022-08-17T14:32:52.079Z,95549.81
2022-08-17T14:35:23.289Z,95555.78
2022-08-17T14:37:53.257Z,95541.94
2022-08-17T14:40:24.972Z,95553.34
2022-08-17T14:42:55.243Z,95546.44
2022-08-17T14:45:31.469Z,95546.19
2022-08-17T14:48:02.779Z,95558.97
2022-08-17T14:50:31.810Z,95544.19
2022-08-17T14:53:03.829Z,95548.72
2022-08-17T14:55:32.547Z,95539.25
2022-08-17T14:58:00.998Z,95551.50
2022-08-17T15:00:29.181Z,95543.47
2022-08-17T15:03:00.262Z,95521.44
2022-08-17T15:05:37.903Z,95519.50
2022-08-17T15:08:08.820Z,95549.47
2022-08-17T15:10:37.713Z,95544.16
2022-08-17T15:13:11.862Z,95503.06
2022-08-17T15:15:40.899Z,95550.59
2022-08-17T15:18:09.241Z,95553.28
2022-08-17T15:20:37.470Z,95554.44
2022-08-17T15:23:07.341Z,95550.38
2022-08-17T15:25:35.694Z,95540.59
2022-08-17T15:28:04.067Z,95530.72
2022-08-17T15:30:32.349Z,95530.38
2022-08-17T15:33:01.935Z,95546.84
2022-08-17T15:35:33.721Z,95536.25
2022-08-17T15:38:11.983Z,95533.03
2022-08-17T15:40:45.443Z,95534.34
2022-08-17T15:43:15.664Z,95534.94
2022-08-17T15:45:44.519Z,95542.78
2022-08-17T15:48:25.240Z,95524.69
2022-08-17T15:50:53.693Z,95530.38
2022-08-17T15:53:21.836Z,95459.84
2022-08-17T15:55:51.648Z,95545.38
2022-08-17T15:58:20.864Z,95535.03
2022-08-17T16:01:18.183Z,95548.31
2022-08-17T16:04:05.037Z,95542.63
2022-08-17T16:06:35.451Z,95514.50
2022-08-17T16:09:03.671Z,95540.66
2022-08-17T16:11:33.166Z,95539.56
2022-08-17T16:14:01.314Z,95537.25
2022-08-17T16:16:31.460Z,95527.84
2022-08-17T16:18:59.837Z,95524.06
2022-08-17T16:21:31.247Z,95517.38
2022-08-17T16:24:13.088Z,95517.78
2022-08-17T16:26:43.814Z,95520.22
2022-08-17T16:29:12.113Z,95512.53
2022-08-17T16:31:41.911Z,95511.66
2022-08-17T16:34:17.115Z,95512.19
2022-08-17T16:36:53.723Z,95512.13
2022-08-17T16:39:24.126Z,95513.81
2022-08-17T16:41:53.554Z,95519.66
2022-08-17T16:44:22.886Z,95524.06
2022-08-17T16:46:51.557Z,95522.88
2022-08-17T16:49:36.216Z,95528.28
2022-08-17T16:52:10.054Z,95529.72
2022-08-17T16:54:39.384Z,95432.09
2022-08-17T16:57:08.899Z,95525.47
2022-08-17T16:59:41.878Z,95509.34
2022-08-17T17:02:14.148Z,95531.41
2022-08-17T17:04:45.879Z,95505.25
2022-08-17T17:07:25.818Z,95536.09
2022-08-17T17:09:55.498Z,95543.34
2022-08-17T17:13:01.229Z,95526.75
2022-08-17T17:15:21.554Z,95540.28
2022-08-17T17:17:52.143Z,95544.84
2022-08-17T17:20:23.761Z,95549.13
2022-08-17T17:23:02.295Z,95550.22
2022-08-17T17:25:34.540Z,95539.53
2022-08-17T17:28:09.850Z,95550.38
2022-08-17T17:30:43.277Z,95525.59
2022-08-17T17:33:13.859Z,95544.59
2022-08-17T17:35:45.794Z,95557.66
2022-08-17T17:38:18.778Z,95517.94
2022-08-17T17:40:50.215Z,95568.44
2022-08-17T17:43:38.347Z,95564.13
2022-08-17T17:46:26.513Z,95562.50
2022-08-17T17:48:57.219Z,95568.28
2022-08-17T17:52:03.601Z,95574.69
2022-08-17T17:54:32.476Z,95569.50
2022-08-17T17:57:05.439Z,95576.97
2022-08-17T17:59:44.090Z,95551.00
2022-08-17T18:02:51.305Z,95583.81
2022-08-17T18:05:34.508Z,95583.56
2022-08-17T18:08:12.768Z,95555.09
2022-08-17T18:10:49.160Z,95575.13
2022-08-17T18:13:26.681Z,95575.75
2022-08-17T18:16:00.856Z,95580.59
2022-08-17T18:18:38.751Z,95579.59
2022-08-17T18:21:16.980Z,95589.59
2022-08-17T18:23:48.277Z,95577.19
2022-08-17T18:26:37.088Z,95583.03
2022-08-17T18:29:15.201Z,95558.06
2022-08-17T18:31:44.925Z,95588.78
2022-08-17T18:37:19.422Z,95581.44
2022-08-17T18:39:47.912Z,95576.88
2022-08-17T18:42:25.997Z,95584.28
2022-08-17T18:44:55.483Z,95592.63
2022-08-17T18:47:27.318Z,95537.06
2022-08-17T18:50:02.591Z,95595.78
2022-08-17T18:52:33.090Z,95596.63
2022-08-17T18:55:09.770Z,95586.16
2022-08-17T18:57:40.339Z,95597.84
2022-08-17T19:00:17.713Z,95601.09
2022-08-17T19:02:58.494Z,95586.38
2022-08-17T19:05:32.561Z,95592.84
2022-08-17T19:08:20.431Z,95593.75
2022-08-17T19:10:50.509Z,95583.31
2022-08-17T19:13:23.857Z,95587.41
2022-08-17T19:16:14.458Z,95595.59
2022-08-17T19:18:46.177Z,95584.66
2022-08-17T19:21:20.191Z,95585.03
2022-08-17T19:23:53.989Z,95580.81
2022-08-17T19:26:53.690Z,95579.81
2022-08-17T19:29:16.693Z,95575.59
2022-08-17T19:31:47.998Z,95586.03
2022-08-17T19:34:29.862Z,95575.69
2022-08-17T19:37:04.753Z,95581.56
2022-08-17T19:39:37.964Z,95581.41
2022-08-17T19:42:12.725Z,95584.91
2022-08-17T19:44:48.370Z,95552.47
2022-08-17T19:47:36.679Z,95584.78
2022-08-17T19:50:15.291Z,95578.31
2022-08-17T19:52:48.648Z,95570.88
2022-08-17T19:55:30.838Z,95564.19
2022-08-17T19:58:07.085Z,95553.72
2022-08-17T20:00:37.445Z,95553.72
2022-08-17T20:03:16.316Z,95559.00
2022-08-17T20:06:11.464Z,95564.06
2022-08-17T20:08:44.172Z,95555.22
2022-08-17T20:11:16.972Z,95546.25
2022-08-17T20:13:49.722Z,95551.97
2022-08-17T20:16:18.535Z,95570.78
2022-08-17T20:18:51.510Z,95570.03
2022-08-17T20:21:24.929Z,95565.84
2022-08-17T20:23:55.419Z,95575.06
2022-08-17T20:26:27.656Z,95566.28
2022-08-17T20:29:37.763Z,95577.16
2022-08-17T20:32:25.672Z,95581.56
2022-08-17T20:35:09.390Z,95595.50
2022-08-17T20:37:43.153Z,95603.34
2022-08-17T20:40:36.460Z,95609.78
2022-08-17T20:43:43.872Z,95619.88
2022-08-17T20:46:31.693Z,95618.13
2022-08-17T20:49:14.725Z,95599.84
2022-08-17T20:52:01.528Z,95628.56
2022-08-17T20:54:46.151Z,95625.75
2022-08-17T20:57:49.074Z,95647.44
2022-08-17T21:00:42.759Z,95659.13
2022-08-17T21:03:51.033Z,95651.09
2022-08-17T21:06:23.640Z,95654.50
2022-08-17T21:08:55.136Z,95635.38
2022-08-17T21:12:04.211Z,95628.53
2022-08-17T21:14:51.954Z,95626.72
2022-08-17T21:17:41.875Z,95630.94
2022-08-17T21:20:23.148Z,95641.00
2022-08-17T21:22:59.339Z,95608.13
2022-08-17T21:25:44.949Z,95647.28
2022-08-17T21:28:20.960Z,95655.53
2022-08-17T21:30:55.520Z,95662.38
2022-08-17T21:33:31.675Z,95653.56
2022-08-17T21:36:24.829Z,95643.88
2022-08-17T21:39:14.582Z,95648.09
2022-08-17T21:41:52.833Z,95617.41
2022-08-17T21:44:31.164Z,95653.50
2022-08-17T21:47:15.184Z,95642.28
2022-08-17T21:49:43.695Z,95637.06
2022-08-17T21:52:14.817Z,95631.63
2022-08-17T21:54:44.985Z,95633.22
2022-08-17T21:57:17.858Z,95640.66
2022-08-17T21:59:52.761Z,95654.31
2022-08-17T22:02:23.087Z,95597.09
2022-08-17T22:04:58.835Z,95633.03
2022-08-17T22:07:39.497Z,95632.84
2022-08-17T22:10:11.012Z,95633.47
2022-08-17T22:12:39.135Z,95598.16
2022-08-17T22:15:10.426Z,95620.81
2022-08-17T22:17:42.272Z,95603.53
2022-08-17T22:20:14.388Z,95608.75
2022-08-17T22:23:24.354Z,95599.34
2022-08-17T22:26:00.888Z,95605.16
2022-08-17T22:28:41.021Z,95603.75
2022-08-17T22:31:11.016Z,95607.19
2022-08-17T22:33:46.020Z,95598.53
2022-08-17T22:36:22.696Z,95592.13
2022-08-17T22:38:53.407Z,95594.94
2022-08-17T22:41:32.114Z,95580.25
2022-08-17T22:44:02.459Z,95586.09
2022-08-17T22:46:31.415Z,95580.88
2022-08-17T22:49:00.724Z,95583.66
2022-08-17T22:51:30.767Z,95584.25
2022-08-17T22:54:19.908Z,95590.50
2022-08-17T22:57:14.683Z,95543.13
2022-08-17T22:59:51.319Z,95571.44
2022-08-17T23:02:26.008Z,95562.59
2022-08-17T23:04:57.410Z,95554.75
2022-08-17T23:07:25.672Z,95555.16
2022-08-17T23:09:55.768Z,95553.78
2022-08-17T23:12:26.835Z,95561.59
2022-08-17T23:15:00.701Z,95563.19
2022-08-17T23:17:33.907Z,95530.63
2022-08-17T23:20:06.641Z,95536.06
2022-08-17T23:22:34.894Z,95558.53
2022-08-17T23:25:05.283Z,95553.94
2022-08-17T23:27:33.427Z,95521.84
2022-08-17T23:30:01.592Z,95515.03
2022-08-17T23:32:29.754Z,95497.38
2022-08-17T23:34:59.206Z,95541.13
2022-08-17T23:37:28.485Z,95540.31
2022-08-17T23:39:56.754Z,95543.91
2022-08-17T23:42:26.407Z,95537.28
2022-08-17T23:44:55.881Z,95529.47
2022-08-17T23:47:24.738Z,95534.47
2022-08-17T23:49:54.242Z,95539.69
2022-08-17T23:52:28.117Z,95537.06
2022-08-17T23:54:57.576Z,95536.91
2022-08-17T23:57:33.553Z,95530.06
